Time;durP1;ratioP1;P1;durP2;ratioP2;P2;SDS_P1;SDS_P2;PMS_P1;PMS_P2;Temp;Humidity;BMP_temperature;BMP_pressure;BME280_temperature;BME280_humidity;BME280_pressure;Samples;Min_cycle;Max_cycle;Signal;HPM_P1;HPM_P2
2022/04/30 00:02:18;;;;;;;;;28.25;22.75;;;;;16.21;41.36;102203.03;5140965;27;45394;-73
2022/04/30 00:04:47;;;;;;;;;24.00;19.25;;;;;16.25;41.19;102210.97;5142237;27;45313;-72
2022/04/30 00:07:18;;;;;;;;;24.00;17.00;;;;;16.28;41.12;102210.09;5141755;27;45258;-71
2022/04/30 00:09:44;;;;;;;;;18.75;16.50;;;;;16.27;41.19;102203.03;5141836;27;45282;-69
2022/04/30 00:12:11;;;;;;;;;18.75;17.00;;;;;16.24;41.80;102203.03;5141756;27;45702;-74
2022/04/30 00:14:37;;;;;;;;;21.50;21.00;;;;;16.11;41.70;102180.97;5140541;27;45369;-75
2022/04/30 00:17:03;;;;;;;;;20.25;19.25;;;;;16.19;41.44;102196.88;5124925;27;45500;-73
2022/04/30 00:19:29;;;;;;;;;25.75;23.50;;;;;16.19;41.92;102202.16;5121776;27;45592;-75
2022/04/30 00:21:55;;;;;;;;;23.25;18.50;;;;;16.20;41.69;102198.63;5141427;27;45263;-73
2022/04/30 00:24:21;;;;;;;;;17.25;14.50;;;;;16.20;41.88;102203.91;5141419;27;45304;-75
2022/04/30 00:26:47;;;;;;;;;26.50;23.00;;;;;16.22;42.08;102210.94;5126998;27;45568;-74
2022/04/30 00:29:13;;;;;;;;;20.75;16.75;;;;;16.01;42.02;102168.63;5119371;27;45740;-73
2022/04/30 00:31:39;;;;;;;;;20.25;18.00;;;;;15.97;42.11;102167.75;5141517;27;45336;-72
2022/04/30 00:34:05;;;;;;;;;24.00;19.50;;;;;16.20;42.20;102203.91;5140705;27;45476;-71
2022/04/30 00:36:31;;;;;;;;;21.25;19.75;;;;;16.02;42.38;102184.50;5123929;27;45501;-70
2022/04/30 00:39:03;;;;;;;;;22.25;21.00;;;;;16.01;42.37;102187.13;5133587;27;45552;-74
2022/04/30 00:41:32;;;;;;;;;21.75;21.25;;;;;15.77;42.46;102161.50;5122944;27;45184;-69
2022/04/30 00:43:58;;;;;;;;;19.75;19.75;;;;;15.81;42.72;102181.78;5120762;27;45414;-72
2022/04/30 00:46:25;;;;;;;;;28.75;23.25;;;;;15.86;43.21;102190.59;5108465;27;45422;-72
2022/04/30 00:48:51;;;;;;;;;26.00;20.25;;;;;15.98;43.13;102224.13;5128275;27;45373;-71
2022/04/30 00:51:19;;;;;;;;;25.00;21.25;;;;;15.97;43.42;102220.59;5122287;27;45407;-72
2022/04/30 00:53:51;;;;;;;;;21.25;21.25;;;;;15.90;43.82;102219.69;5141624;27;45397;-69
2022/04/30 00:56:27;;;;;;;;;24.50;22.25;;;;;15.82;43.83;102220.53;5140857;27;45434;-73
2022/04/30 00:58:56;;;;;;;;;24.50;22.25;;;;;15.79;44.30;102220.53;5139173;27;45254;-72
2022/04/30 01:01:23;;;;;;;;;23.25;23.00;;;;;15.79;44.28;102221.41;5139999;27;45498;-69
2022/04/30 01:03:49;;;;;;;;;25.25;20.50;;;;;15.64;44.41;102190.50;5142454;27;45472;-69
2022/04/30 01:06:15;;;;;;;;;21.75;17.00;;;;;15.68;44.47;102194.91;5122574;27;48238;-70
2022/04/30 01:08:41;;;;;;;;;23.75;20.75;;;;;15.64;44.34;102190.50;5140615;27;45335;-69
2022/04/30 01:11:07;;;;;;;;;24.50;23.50;;;;;15.53;44.35;102160.50;5123235;27;45488;-72
2022/04/30 01:13:36;;;;;;;;;27.50;22.00;;;;;15.78;44.72;102210.81;5128591;27;45535;-69
2022/04/30 01:16:04;;;;;;;;;27.00;20.75;;;;;15.57;44.44;102169.34;5137889;27;45592;-69
2022/04/30 01:18:30;;;;;;;;;23.75;19.25;;;;;15.67;44.57;102185.22;5100763;27;45468;-66
2022/04/30 01:20:59;;;;;;;;;24.75;21.50;;;;;15.63;44.24;102186.06;5135286;27;45370;-67
2022/04/30 01:23:26;;;;;;;;;20.50;18.75;;;;;15.69;44.40;102195.78;5141030;27;45566;-68
2022/04/30 01:25:53;;;;;;;;;29.00;24.75;;;;;15.57;44.48;102169.34;5140645;27;46291;-68
2022/04/30 01:28:19;;;;;;;;;21.25;18.75;;;;;15.55;44.58;102168.44;5140501;27;45479;-68
2022/04/30 01:30:45;;;;;;;;;26.50;21.75;;;;;15.67;44.94;102189.63;5130427;27;45677;-69
2022/04/30 01:38:58;;;;;;;;;22.00;21.25;;;;;15.53;45.35;102186.03;5119322;27;45371;-68
2022/04/30 01:41:26;;;;;;;;;24.50;22.25;;;;;15.39;45.73;102156.91;5120113;27;45676;-69
2022/04/30 01:43:53;;;;;;;;;23.75;21.75;;;;;15.52;45.02;102185.16;5119634;27;45469;-70
2022/04/30 01:46:19;;;;;;;;;26.00;21.75;;;;;15.51;45.51;102182.50;5119267;27;46729;-72
2022/04/30 01:48:45;;;;;;;;;28.75;19.00;;;;;15.50;45.08;102179.00;5132004;27;45700;-69
2022/04/30 01:51:14;;;;;;;;;28.00;23.00;;;;;15.25;45.16;102141.00;5125813;27;45515;-72
2022/04/30 01:53:42;;;;;;;;;23.00;21.75;;;;;15.46;45.73;102169.28;5140469;27;45279;-73
2022/04/30 01:56:07;;;;;;;;;22.25;21.25;;;;;15.49;45.37;102177.19;5141189;27;45532;-73
2022/04/30 01:58:33;;;;;;;;;26.25;22.00;;;;;14.96;45.41;102091.59;5133718;27;45335;-72
2022/04/30 02:01:00;;;;;;;;;29.75;26.50;;;;;14.71;45.60;102048.41;5132322;27;45618;-73
2022/04/30 02:03:27;;;;;;;;;34.25;27.75;;;;;15.09;46.01;102108.41;5140232;27;45472;-70
2022/04/30 02:05:54;;;;;;;;;29.50;26.00;;;;;15.31;45.81;102148.09;5140150;27;46541;-73
2022/04/30 02:08:20;;;;;;;;;31.25;27.50;;;;;15.27;45.49;102153.34;5139879;27;45520;-73
2022/04/30 02:10:48;;;;;;;;;26.25;20.50;;;;;15.18;46.17;102141.84;5134078;27;45508;-66
2022/04/30 02:13:18;;;;;;;;;29.00;24.75;;;;;14.97;46.09;102117.13;5133797;27;45476;-68
2022/04/30 02:15:46;;;;;;;;;31.50;26.75;;;;;15.26;46.19;102164.78;5120024;27;45474;-72
2022/04/30 02:18:13;;;;;;;;;29.25;25.50;;;;;15.14;46.50;102146.25;5112892;27;45492;-71
2022/04/30 02:20:43;;;;;;;;;28.75;27.00;;;;;15.19;46.13;102147.16;5120202;27;45424;-72
2022/04/30 02:23:10;;;;;;;;;26.75;22.75;;;;;15.24;46.27;102155.97;5141105;27;45499;-67
2022/04/30 02:25:36;;;;;;;;;25.00;22.25;;;;;15.25;46.28;102159.50;5139863;27;45518;-65
2022/04/30 02:28:05;;;;;;;;;25.50;25.25;;;;;14.95;46.19;102108.31;5122634;27;45278;-72
2022/04/30 02:30:36;;;;;;;;;27.25;24.00;;;;;15.26;46.05;102161.28;5141964;27;45371;-71
2022/04/30 02:33:10;;;;;;;;;23.75;19.00;;;;;15.13;46.59;102140.94;5105872;27;45582;-69
2022/04/30 02:35:39;;;;;;;;;22.50;17.75;;;;;15.26;46.35;102164.78;5118410;27;45549;-68
2022/04/30 02:38:08;;;;;;;;;26.50;24.25;;;;;15.22;46.74;102146.28;5100322;27;45469;-71
2022/04/30 02:40:35;;;;;;;;;28.75;23.25;;;;;15.25;46.20;102157.72;5134869;27;45570;-72
2022/04/30 02:43:09;;;;;;;;;24.75;21.75;;;;;15.21;46.35;102153.31;5134956;27;45259;-70
2022/04/30 02:45:37;;;;;;;;;28.00;20.50;;;;;15.18;46.31;102163.84;5139136;27;45512;-66
2022/04/30 02:48:03;;;;;;;;;28.50;21.00;;;;;15.16;46.51;102160.34;5124114;27;45267;-68
2022/04/30 02:50:30;;;;;;;;;29.50;25.00;;;;;15.12;46.95;102155.91;5118564;27;45347;-68
2022/04/30 02:52:55;;;;;;;;;23.75;23.50;;;;;15.13;46.59;102155.03;5133333;27;45563;-67
2022/04/30 02:55:22;;;;;;;;;21.00;20.50;;;;;15.03;46.85;102153.22;5121080;27;45843;-69
2022/04/30 03:00:51;;;;;;;;;26.50;21.00;;;;;15.04;47.10;102147.06;5138304;27;45652;-68
2022/04/30 03:03:17;;;;;;;;;23.50;20.75;;;;;14.94;47.13;102137.31;5119876;27;45416;-67
2022/04/30 03:05:47;;;;;;;;;28.75;24.50;;;;;15.02;47.02;102146.19;5099581;27;45514;-69
2022/04/30 03:08:20;;;;;;;;;22.00;21.50;;;;;14.99;47.20;102143.50;5118253;27;45321;-67
2022/04/30 03:10:48;;;;;;;;;23.50;19.25;;;;;15.04;47.15;102147.97;5120124;27;45526;-68
2022/04/30 03:13:14;;;;;;;;;25.25;21.00;;;;;14.95;47.55;102137.34;5120489;27;45499;-67
2022/04/30 03:15:45;;;;;;;;;25.50;21.50;;;;;15.00;47.40;102148.81;5122998;27;45319;-67
2022/04/30 03:23:42;;;;;;;;;22.00;17.50;;;;;15.05;47.42;102156.75;5120397;27;45467;-72
2022/04/30 03:26:10;;;;;;;;;22.00;20.50;;;;;14.99;47.13;102141.75;5118865;27;48046;-68
2022/04/30 03:28:40;;;;;;;;;17.25;14.50;;;;;15.06;47.81;102146.19;5121420;27;45517;-67
2022/04/30 03:31:07;;;;;;;;;26.50;22.50;;;;;15.05;47.51;102148.84;5121507;27;45433;-66
2022/04/30 03:33:33;;;;;;;;;29.50;22.25;;;;;15.04;47.35;102149.69;5130374;27;45434;-66
2022/04/30 03:35:59;;;;;;;;;29.25;23.00;;;;;14.64;47.28;102075.59;5141209;27;45849;-68
2022/04/30 03:38:25;;;;;;;;;26.50;22.75;;;;;14.99;47.38;102132.94;5142273;27;45399;-69
2022/04/30 03:40:51;;;;;;;;;25.75;19.00;;;;;14.96;47.62;102122.38;5142286;27;45379;-70
2022/04/30 03:43:18;;;;;;;;;30.25;21.25;;;;;15.04;47.34;102137.41;5142388;27;45432;-73
2022/04/30 03:45:44;;;;;;;;;19.75;18.75;;;;;15.00;47.79;102137.38;5127852;27;46441;-72
2022/04/30 03:48:10;;;;;;;;;28.50;21.25;;;;;15.05;47.34;102146.19;5120945;27;45455;-71
2022/04/30 03:50:35;;;;;;;;;25.50;20.50;;;;;14.93;47.17;102123.25;5121044;27;45399;-74
2022/04/30 03:53:02;;;;;;;;;22.25;18.25;;;;;14.89;47.52;102116.19;5121071;27;45452;-73
2022/04/30 03:55:30;;;;;;;;;20.00;17.25;;;;;15.01;47.31;102131.22;5132189;27;45439;-72
2022/04/30 03:57:56;;;;;;;;;21.50;20.25;;;;;15.05;47.30;102141.78;5142407;27;45506;-70
2022/04/30 04:00:24;;;;;;;;;23.50;21.50;;;;;15.01;47.67;102141.75;5142939;27;45540;-74
2022/04/30 04:02:59;;;;;;;;;27.00;21.25;;;;;15.01;47.47;102132.09;5142435;27;45426;-74
2022/04/30 04:05:26;;;;;;;;;26.25;23.75;;;;;14.93;47.23;102114.47;5130580;27;45446;-68
2022/04/30 04:07:54;;;;;;;;;20.75;20.25;;;;;14.96;47.58;102122.38;5102935;27;45410;-73
2022/04/30 04:10:19;;;;;;;;;28.75;20.50;;;;;14.94;47.39;102118.84;5120892;27;45356;-72
2022/04/30 04:12:45;;;;;;;;;27.00;20.50;;;;;15.05;47.25;102140.91;5120920;27;45358;-70
2022/04/30 04:17:55;;;;;;;;;29.50;23.75;;;;;14.84;47.70;102120.56;5120709;27;45505;-73
2022/04/30 04:20:25;;;;;;;;;24.50;19.75;;;;;14.88;47.58;102129.34;5120629;27;45826;-71
2022/04/30 04:22:55;;;;;;;;;32.00;23.75;;;;;14.89;47.64;102128.50;5102608;27;45562;-71
2022/04/30 04:28:06;;;;;;;;;28.75;24.25;;;;;14.91;48.22;102137.31;5144290;27;45406;-74
2022/04/30 04:30:33;;;;;;;;;29.50;26.00;;;;;14.94;48.15;102145.22;5144269;27;45823;-75
2022/04/30 04:32:59;;;;;;;;;30.25;24.50;;;;;14.64;47.96;102099.34;5123895;27;45323;-69
2022/04/30 04:35:28;;;;;;;;;33.75;27.50;;;;;14.91;48.01;102143.47;5131540;27;45482;-75
2022/04/30 04:37:55;;;;;;;;;31.25;26.50;;;;;14.83;48.21;102132.00;5150010;27;44717;-72
2022/04/30 04:40:21;;;;;;;;;24.50;21.50;;;;;14.94;48.23;102145.22;5141281;27;45321;-74
2022/04/30 04:42:47;;;;;;;;;34.00;27.25;;;;;14.87;47.92;102133.75;5142508;27;45490;-68
2022/04/30 04:45:13;;;;;;;;;26.75;25.50;;;;;14.93;48.15;102147.00;5120785;27;47293;-67
2022/04/30 04:47:41;;;;;;;;;25.50;23.00;;;;;14.92;48.29;102147.84;5106358;27;45415;-72
2022/04/30 04:50:12;;;;;;;;;32.50;30.50;;;;;14.88;47.98;102147.81;5119401;27;45405;-74
2022/04/30 04:52:38;;;;;;;;;30.00;24.25;;;;;14.82;47.83;102146.03;5143811;27;45482;-74
2022/04/30 04:55:05;;;;;;;;;34.25;28.00;;;;;14.90;48.02;102160.19;5143071;27;45523;-73
2022/04/30 04:57:30;;;;;;;;;32.50;26.50;;;;;14.73;48.35;102143.31;5143285;27;45366;-76
2022/04/30 04:59:56;;;;;;;;;33.75;29.00;;;;;14.65;48.66;102142.41;5140697;27;45501;-69
2022/04/30 05:02:23;;;;;;;;;27.75;24.75;;;;;14.83;48.83;102169.81;5136083;27;45274;-75
2022/04/30 05:04:51;;;;;;;;;32.50;23.50;;;;;14.81;48.52;102165.38;5108596;27;46921;-70
2022/04/30 05:07:17;;;;;;;;;32.50;25.00;;;;;14.86;48.58;102173.34;5134889;27;45633;-69
2022/04/30 05:09:42;;;;;;;;;26.75;24.25;;;;;14.64;48.36;102130.97;5127246;27;45533;-70
2022/04/30 05:12:09;;;;;;;;;27.75;27.00;;;;;14.85;48.41;102156.59;5134650;27;45524;-74
2022/04/30 05:14:37;;;;;;;;;28.25;27.75;;;;;14.71;48.29;102138.06;5134342;27;46338;-70
2022/04/30 05:17:05;;;;;;;;;33.00;27.00;;;;;14.86;48.79;102160.16;5117573;27;45374;-74
2022/04/30 05:19:34;;;;;;;;;26.75;25.25;;;;;14.92;48.38;102179.50;5137574;27;45467;-75
2022/04/30 05:22:00;;;;;;;;;32.25;27.00;;;;;14.72;48.36;102152.13;5137162;27;45505;-71
2022/04/30 05:24:46;;;;;;;;;30.00;27.00;;;;;14.86;48.29;102178.59;5134322;27;45457;-76
2022/04/30 05:27:12;;;;;;;;;21.75;20.50;;;;;14.90;48.31;102180.38;5137033;27;45426;-75
2022/04/30 05:29:40;;;;;;;;;26.75;25.25;;;;;14.85;48.09;102175.06;5142914;27;45316;-72
2022/04/30 05:32:07;;;;;;;;;31.50;27.25;;;;;14.84;48.41;102182.09;5139620;27;45428;-69
2022/04/30 05:34:33;;;;;;;;;32.75;28.00;;;;;14.58;49.01;102163.44;5120689;27;45616;-72
2022/04/30 05:36:59;;;;;;;;;32.25;26.75;;;;;14.39;49.20;102159.72;5143070;27;45386;-72
2022/04/30 05:39:26;;;;;;;;;31.50;27.50;;;;;14.55;49.47;102192.41;5141740;27;45382;-71
2022/04/30 05:41:51;;;;;;;;;29.25;23.50;;;;;14.36;48.95;102154.44;5139818;27;45377;-68
2022/04/30 05:44:17;;;;;;;;;31.25;26.50;;;;;14.36;48.82;102157.06;5120118;27;45506;-70
2022/04/30 05:46:43;;;;;;;;;33.50;26.50;;;;;14.37;49.50;102171.13;5119602;27;45256;-68
2022/04/30 05:49:08;;;;;;;;;34.50;27.50;;;;;14.60;49.24;102195.97;5131898;27;45591;-70
2022/04/30 05:51:34;;;;;;;;;28.25;22.25;;;;;14.60;49.01;102188.06;5119680;27;45392;-69
2022/04/30 05:53:59;;;;;;;;;30.25;26.50;;;;;14.65;48.88;102189.88;5120053;27;46239;-70
2022/04/30 05:56:25;;;;;;;;;34.75;29.25;;;;;14.75;48.54;102197.84;5119277;27;45308;-71
2022/04/30 05:58:51;;;;;;;;;26.50;22.25;;;;;14.67;48.80;102177.59;5119220;27;45381;-71
2022/04/30 06:01:16;;;;;;;;;25.50;25.25;;;;;14.72;48.82;102167.94;5119567;27;45511;-67
2022/04/30 06:03:42;;;;;;;;;31.00;25.25;;;;;14.93;48.35;102193.59;5120332;27;45938;-66
2022/04/30 06:06:08;;;;;;;;;24.50;24.00;;;;;14.99;48.31;102177.81;5101722;27;45412;-73
2022/04/30 06:08:34;;;;;;;;;33.00;27.00;;;;;15.22;48.30;102207.00;5125379;27;45768;-68
2022/04/30 06:11:18;;;;;;;;;24.75;20.50;;;;;15.30;47.73;102209.66;5139924;27;45459;-74
2022/04/30 06:13:44;;;;;;;;;33.25;28.50;;;;;15.17;47.67;102193.75;5131024;27;46630;-69
2022/04/30 06:16:10;;;;;;;;;22.50;22.50;;;;;15.36;47.47;102222.91;5115363;27;45643;-68
2022/04/30 06:18:36;;;;;;;;;33.00;26.75;;;;;15.26;47.61;102204.38;5118263;27;45391;-70
2022/04/30 06:21:02;;;;;;;;;32.50;27.50;;;;;15.35;47.63;102223.78;5116745;27;45594;-67
2022/04/30 06:23:27;;;;;;;;;27.25;25.25;;;;;15.38;47.64;102226.44;5117869;27;45557;-69
2022/04/30 06:25:53;;;;;;;;;35.75;30.50;;;;;15.23;47.31;102207.00;5118316;27;45447;-68
2022/04/30 06:28:19;;;;;;;;;30.25;25.75;;;;;15.34;46.91;102219.38;5118340;27;45277;-67
2022/04/30 06:30:45;;;;;;;;;28.00;21.50;;;;;15.37;47.13;102220.25;5118115;27;45430;-68
2022/04/30 06:33:11;;;;;;;;;28.75;25.50;;;;;15.46;47.06;102224.72;5122158;27;45347;-69
2022/04/30 06:35:37;;;;;;;;;31.50;26.00;;;;;15.27;46.71;102192.94;5124262;27;45429;-67
2022/04/30 06:38:03;;;;;;;;;29.50;25.00;;;;;15.60;46.78;102225.69;5120238;27;45507;-69
2022/04/30 06:42:41;;;;;;;;;26.50;24.75;;;;;15.37;47.34;102154.25;5108572;27;45599;-75
2022/04/30 06:45:09;;;;;;;;;30.50;25.25;;;;;15.99;46.98;102239.06;5074672;27;45332;-76
2022/04/30 06:47:36;;;;;;;;;34.25;29.00;;;;;15.85;47.11;102208.22;5055339;28;45496;-75
2022/04/30 06:50:02;;;;;;;;;25.25;22.25;;;;;15.30;46.15;102112.00;5074337;27;45418;-75
2022/04/30 06:52:28;;;;;;;;;24.50;21.75;;;;;15.72;47.02;102166.78;5084033;27;45436;-75
2022/04/30 06:57:37;;;;;;;;;28.75;23.75;;;;;15.71;46.68;102135.06;5075703;28;45424;-76
2022/04/30 07:02:48;;;;;;;;;29.75;24.25;;;;;15.56;46.06;102099.78;5079714;27;45536;-76
2022/04/30 07:05:14;;;;;;;;;30.00;23.50;;;;;16.02;45.23;102171.28;5090005;27;45495;-73
2022/04/30 07:07:39;;;;;;;;;24.25;22.00;;;;;16.22;44.75;102218.00;5091279;27;45449;-74
2022/04/30 07:10:05;;;;;;;;;26.00;21.50;;;;;16.14;44.35;102215.34;5056469;28;45426;-74
2022/04/30 07:12:31;;;;;;;;;27.25;23.50;;;;;15.96;44.50;102184.47;5087273;27;46370;-76
2022/04/30 07:14:56;;;;;;;;;34.75;30.75;;;;;16.07;43.72;102235.59;5077159;27;45511;-77
2022/04/30 07:17:22;;;;;;;;;44.25;34.00;;;;;15.96;44.00;102244.34;5073644;27;45452;-74
2022/04/30 07:19:47;;;;;;;;;29.25;26.50;;;;;15.92;44.63;102251.38;5074989;28;45635;-79
2022/04/30 07:22:13;;;;;;;;;29.75;27.75;;;;;15.50;44.44;102157.00;5092291;27;46101;-73
2022/04/30 07:24:39;;;;;;;;;26.50;26.25;;;;;16.10;44.36;102256.75;5098511;27;45435;-70
2022/04/30 07:27:09;;;;;;;;;32.25;27.50;;;;;16.05;44.06;102237.34;5095893;27;45388;-71
2022/04/30 07:29:37;;;;;;;;;27.00;23.00;;;;;16.24;44.56;102256.78;5097777;27;45351;-77
2022/04/30 07:32:02;;;;;;;;;27.00;22.50;;;;;16.29;44.35;102251.50;5093863;27;46016;-75
2022/04/30 07:34:28;;;;;;;;;25.50;24.00;;;;;16.39;43.80;102255.94;5094736;27;45358;-77
2022/04/30 07:36:54;;;;;;;;;24.50;20.75;;;;;16.47;43.37;102253.31;5094111;27;45464;-74
2022/04/30 07:39:19;;;;;;;;;28.00;25.50;;;;;16.34;43.31;102231.25;5094692;27;45410;-77
2022/04/30 07:41:45;;;;;;;;;27.50;21.75;;;;;16.31;43.27;102223.31;5093876;27;45953;-75
2022/04/30 07:44:14;;;;;;;;;31.25;22.00;;;;;16.57;43.25;102257.75;5091311;27;45372;-73
2022/04/30 07:46:40;;;;;;;;;28.00;24.75;;;;;16.46;42.88;102268.28;5093956;27;45512;-73
2022/04/30 07:49:06;;;;;;;;;28.75;26.75;;;;;16.41;43.37;102271.81;5075339;27;45424;-79
2022/04/30 07:51:38;;;;;;;;;32.00;28.75;;;;;16.03;43.01;102212.66;5087553;27;46607;-75
2022/04/30 07:54:04;;;;;;;;;27.50;24.25;;;;;16.27;43.33;102267.34;5075890;27;45655;-71
2022/04/30 07:56:30;;;;;;;;;22.00;20.50;;;;;16.33;43.35;102264.75;5079138;28;45307;-77
2022/04/30 07:58:56;;;;;;;;;22.50;22.25;;;;;15.50;43.46;102112.97;5068323;28;45379;-80
2022/04/30 08:01:22;;;;;;;;;22.25;21.00;;;;;16.49;42.94;102277.97;5063354;28;46125;-76
2022/04/30 08:03:47;;;;;;;;;25.75;21.00;;;;;16.44;43.07;102250.66;5078840;27;45546;-75
2022/04/30 08:06:14;;;;;;;;;23.75;19.25;;;;;16.53;43.27;102253.31;5079001;27;45492;-79
2022/04/30 08:08:39;;;;;;;;;22.25;20.50;;;;;16.48;43.55;102229.50;5079550;28;45504;-77
2022/04/30 08:11:05;;;;;;;;;24.25;21.00;;;;;16.59;42.76;102245.41;5059441;28;46251;-77
2022/04/30 08:13:31;;;;;;;;;25.75;19.75;;;;;16.77;42.50;102255.09;5060625;28;45312;-74
2022/04/30 08:15:57;;;;;;;;;23.50;21.25;;;;;16.39;42.21;102173.97;5058840;28;45441;-77
2022/04/30 08:18:24;;;;;;;;;20.75;20.25;;;;;17.05;42.94;102263.09;5071503;28;45546;-76
2022/04/30 08:20:50;;;;;;;;;23.75;19.25;;;;;16.39;43.35;102129.00;5078127;27;45479;-82
2022/04/30 08:23:15;;;;;;;;;26.50;21.00;;;;;16.86;42.12;102177.53;5069031;27;45483;-80
2022/04/30 08:25:41;;;;;;;;;22.25;21.25;;;;;17.35;42.14;102267.47;5077815;27;45401;-76
2022/04/30 08:28:07;;;;;;;;;26.50;22.75;;;;;17.27;41.48;102262.16;5085463;27;45473;-79
2022/04/30 08:30:33;;;;;;;;;29.50;24.75;;;;;17.05;40.88;102253.38;5065317;28;45409;-81
2022/04/30 08:33:00;;;;;;;;;25.00;22.75;;;;;16.48;41.98;102173.97;5059149;28;45336;-81
2022/04/30 08:35:26;;;;;;;;;26.00;21.25;;;;;16.92;43.33;102262.22;5074402;28;45399;-81
2022/04/30 08:37:52;;;;;;;;;19.00;16.75;;;;;16.49;43.16;102157.25;5079420;28;45350;-82
2022/04/30 08:40:18;;;;;;;;;24.75;17.50;;;;;17.05;43.00;102244.56;5082077;28;45572;-80
2022/04/30 08:42:44;;;;;;;;;23.75;20.00;;;;;17.38;42.88;102262.16;5076836;27;45548;-80
2022/04/30 08:45:10;;;;;;;;;25.00;20.00;;;;;17.20;42.17;102193.34;5074617;28;45448;-76
2022/04/30 08:47:41;;;;;;;;;19.75;18.50;;;;;17.20;41.34;102170.38;5049194;28;45332;-82
2022/04/30 08:50:08;;;;;;;;;26.00;23.25;;;;;17.28;41.30;102168.63;5078904;28;46270;-79
2022/04/30 08:52:34;;;;;;;;;22.00;22.00;;;;;17.61;40.55;102211.78;5077696;28;45346;-80
2022/04/30 08:55:00;;;;;;;;;22.00;20.25;;;;;17.94;40.74;102265.56;5073524;27;45327;-77
2022/04/30 08:57:26;;;;;;;;;27.75;25.75;;;;;17.58;40.21;102201.16;5061029;28;45486;-77
2022/04/30 08:59:52;;;;;;;;;22.25;17.75;;;;;16.89;40.79;102066.38;5071774;28;45509;-80
2022/04/30 09:02:17;;;;;;;;;25.00;20.33;;;;;17.54;40.69;102165.00;5071988;27;45521;-81
2022/04/30 09:04:46;;;;;;;;;25.00;21.00;;;;;18.04;39.88;102224.00;5062963;28;45577;-81
2022/04/30 09:07:20;;;;;;;;;25.25;21.50;;;;;18.05;39.47;102233.69;5069780;27;45571;-79
2022/04/30 09:09:59;;;;;;;;;22.33;19.33;;;;;18.09;40.17;102228.38;5078546;27;46045;-77
2022/04/30 09:12:27;;;;;;;;;20.67;18.67;;;;;17.86;39.42;102187.84;5060469;28;45276;-78
2022/04/30 09:14:53;;;;;;;;;24.67;22.33;;;;;18.25;39.19;102234.47;5078532;28;45346;-79
2022/04/30 09:17:22;;;;;;;;;28.50;25.75;;;;;18.24;38.93;102235.34;5067496;27;45235;-76
2022/04/30 09:19:53;;;;;;;;;19.67;18.33;;;;;18.23;39.40;102246.84;5057839;28;46496;-73
2022/04/30 09:22:34;;;;;;;;;27.25;25.00;;;;;18.23;38.73;102242.41;5059065;28;45309;-78
2022/04/30 09:25:03;;;;;;;;;22.67;20.67;;;;;18.20;38.53;102230.97;5065027;28;45546;-79
2022/04/30 09:27:29;;;;;;;;;26.50;21.50;;;;;18.21;38.68;102230.06;5062656;28;45433;-73
2022/04/30 09:29:58;;;;;;;;;26.75;23.50;;;;;18.08;38.31;102223.06;5080069;27;45521;-80
2022/04/30 09:32:26;;;;;;;;;28.00;24.75;;;;;18.03;38.27;102233.69;5063393;28;45463;-73
2022/04/30 09:37:43;;;;;;;;;23.00;20.67;;;;;17.62;38.34;102179.06;5069686;28;45311;-73
2022/04/30 09:40:15;;;;;;;;;20.67;20.67;;;;;17.84;38.33;102234.66;5061635;28;45843;-71
2022/04/30 09:42:42;;;;;;;;;20.00;20.00;;;;;17.82;38.49;102224.09;5062171;28;46362;-82
2022/04/30 09:45:26;;;;;;;;;14.00;13.00;;;;;17.90;40.45;102237.31;5060392;28;45404;-77
2022/04/30 09:47:53;;;;;;;;;15.67;13.67;;;;;17.86;39.14;102209.03;5063318;28;45458;-82
2022/04/30 09:55:53;;;;;;;;;15.00;12.00;;;;;17.92;37.11;102161.31;5071793;28;45601;-76
2022/04/30 09:58:27;;;;;;;;;20.00;13.00;;;;;17.44;36.69;102089.09;5065235;28;44871;-76
2022/04/30 10:00:55;;;;;;;;;10.33;10.33;;;;;18.18;39.05;102206.22;5067779;27;45343;-73
2022/04/30 10:03:26;;;;;;;;;15.00;13.33;;;;;18.41;37.22;102220.22;5078021;27;45900;-78
2022/04/30 10:05:59;;;;;;;;;14.33;12.00;;;;;17.77;37.39;102080.97;5081757;28;45526;-72
2022/04/30 10:08:27;;;;;;;;;12.00;10.67;;;;;18.26;36.60;102156.66;5088614;28;45522;-73
2022/04/30 10:11:42;;;;;;;;;9.67;9.00;;;;;18.70;35.68;102215.56;5080826;27;45355;-76
2022/04/30 10:14:14;;;;;;;;;10.67;10.00;;;;;18.76;35.76;102211.13;5016078;28;45611;-77
2022/04/30 10:16:55;;;;;;;;;13.33;12.00;;;;;18.63;35.84;102189.09;5065556;28;45418;-77
2022/04/30 10:19:21;;;;;;;;;15.67;13.67;;;;;18.60;35.96;102162.59;5077006;28;45481;-74
2022/04/30 10:22:16;;;;;;;;;18.33;15.67;;;;;18.65;34.86;102183.78;5074388;28;46286;-76
2022/04/30 10:24:53;;;;;;;;;18.33;15.33;;;;;18.03;35.21;102135.59;5077775;28;45519;-76
2022/04/30 10:27:19;;;;;;;;;21.00;18.67;;;;;18.14;35.86;102201.81;5069353;27;45584;-77
2022/04/30 10:29:55;;;;;;;;;19.67;15.67;;;;;17.41;35.93;102105.00;5077908;27;45465;-76
2022/04/30 10:32:37;;;;;;;;;15.33;14.33;;;;;17.89;35.83;102196.66;5077578;27;46462;-74
2022/04/30 10:35:04;;;;;;;;;12.00;11.00;;;;;17.83;36.31;102180.78;5076681;28;45418;-73
2022/04/30 10:37:35;;;;;;;;;13.00;12.67;;;;;18.08;36.08;102185.94;5068527;28;45398;-69
2022/04/30 10:40:08;;;;;;;;;13.33;12.33;;;;;18.23;35.54;102197.34;5077044;28;45479;-70
2022/04/30 10:42:45;;;;;;;;;10.67;10.00;;;;;18.02;35.26;102132.06;5058591;28;46646;-77
2022/04/30 10:45:15;;;;;;;;;11.00;11.00;;;;;18.39;35.44;102157.47;5056947;27;45256;-69
2022/04/30 10:47:55;;;;;;;;;8.00;8.00;;;;;18.48;34.90;102145.88;5038611;28;45358;-71
2022/04/30 10:50:22;;;;;;;;;10.67;10.33;;;;;18.77;34.60;102180.13;5061666;27;45463;-70
2022/04/30 10:52:49;;;;;;;;;12.00;12.00;;;;;18.67;33.83;102152.78;5077254;28;46072;-69
2022/04/30 10:55:16;;;;;;;;;13.00;10.33;;;;;18.86;34.00;102177.41;5076790;28;45593;-70
2022/04/30 10:57:43;;;;;;;;;13.00;9.00;;;;;18.91;33.94;102157.03;5054834;28;45719;-73
2022/04/30 11:00:09;;;;;;;;;13.67;9.67;;;;;19.03;33.40;102164.84;5038875;28;45510;-68
2022/04/30 11:02:35;;;;;;;;;13.67;9.67;;;;;19.18;33.70;102168.25;5076622;28;45369;-69
2022/04/30 11:05:01;;;;;;;;;14.67;14.00;;;;;19.22;33.39;102172.59;5076757;28;45485;-70
2022/04/30 11:07:28;;;;;;;;;16.33;13.33;;;;;19.28;33.68;102172.53;5076542;27;45497;-68
2022/04/30 11:09:55;;;;;;;;;13.00;11.33;;;;;19.27;33.57;102160.19;5076369;28;45319;-72
2022/04/30 11:12:21;;;;;;;;;10.67;10.33;;;;;19.37;33.25;102145.88;5058293;28;46179;-68
2022/04/30 11:14:47;;;;;;;;;12.33;12.33;;;;;19.55;32.97;102158.06;5038367;28;45456;-70
2022/04/30 11:17:13;;;;;;;;;13.67;10.33;;;;;19.56;32.84;102151.84;5056311;28;45307;-72
2022/04/30 11:19:43;;;;;;;;;12.33;12.33;;;;;19.68;33.00;102142.88;5073567;27;45473;-70
2022/04/30 11:22:10;;;;;;;;;8.00;4.67;;;;;19.70;33.00;102139.28;5077065;28;45425;-69
2022/04/30 11:24:39;;;;;;;;;9.00;9.00;;;;;19.80;32.10;102142.69;5077006;28;45393;-72
2022/04/30 11:27:10;;;;;;;;;10.67;8.00;;;;;19.86;32.25;102139.97;5068702;28;45445;-72
2022/04/30 11:29:37;;;;;;;;;8.00;6.33;;;;;19.99;32.09;102137.13;5074781;27;45458;-73
2022/04/30 11:32:04;;;;;;;;;8.00;8.00;;;;;20.03;31.95;102125.53;5061262;28;46281;-76
2022/04/30 11:34:30;;;;;;;;;10.00;8.67;;;;;20.14;31.98;102136.88;5079865;28;45463;-74
2022/04/30 11:36:58;;;;;;;;;9.67;8.00;;;;;20.25;31.90;102137.56;5077983;28;45698;-74
2022/04/30 11:39:25;;;;;;;;;13.33;11.33;;;;;20.24;30.89;102113.66;5057832;28;46504;-74
2022/04/30 11:41:53;;;;;;;;;10.33;9.00;;;;;19.97;30.45;102118.50;5059126;28;46025;-73
2022/04/30 11:44:21;;;;;;;;;5.00;5.00;;;;;20.06;30.96;102113.06;5070151;27;45407;-74
2022/04/30 11:46:51;;;;;;;;;10.67;10.67;;;;;20.11;31.09;102110.31;5079641;27;45512;-71
2022/04/30 11:49:19;;;;;;;;;9.33;9.33;;;;;20.15;30.68;102100.53;5070762;27;45615;-74